Flight Track Log - Related Links

Times and Time Zones

All times are in EDT time to prevent confusion due to time zone crossing. See the UAL4476 flight status page for this flight to view local times or setup timezone preferences in your user account.

Time Position Orientation Groundspeed Altitude Reporting Facility
EDT Latitude Longitude Course Direction KTS MPH feet Rate Location/Type
Fri 07:14:46 AM 32.9667 -97.0333 29° Northeast 200 230 2,800  Level Dallas / Fort Worth TRACON
Fri 07:15:52 AM 33.0167 -97.0000 29° Northeast 265 305 5,500 2,465 Climbing Dallas / Fort Worth TRACON
Fri 07:17:51 AM 33.0408 -96.8261 81° East 277 319 10,400 2,011 Climbing Fort Worth Center
Fri 07:18:51 AM 33.0486 -96.7244 85° East 291 335 11,500 1,250 Climbing Fort Worth Center
Fri 07:19:51 AM 33.0606 -96.6053 83° East 343 395 12,900 1,350 Climbing Fort Worth Center
Fri 07:20:51 AM 33.0681 -96.4936 85° East 367 422 14,200 1,500 Climbing Fort Worth Center
Fri 07:21:51 AM 33.0817 -96.3547 83° East 378 435 15,900 1,500 Climbing Fort Worth Center
Fri 07:22:51 AM 33.1078 -96.2478 74° East 378 435 17,200 1,400 Climbing Fort Worth Center
Fri 07:23:51 AM 33.1481 -96.1158 70° East 377 434 18,700 1,450 Climbing Fort Worth Center
Fri 07:24:51 AM 33.1783 -96.0086 71° East 382 440 20,100 1,500 Climbing Fort Worth Center
Fri 07:25:51 AM 33.2186 -95.8764 70° East 382 440 21,700 1,500 Climbing Fort Worth Center
Fri 07:26:51 AM 33.2486 -95.7692 71° East 382 440 23,100 1,450 Climbing Fort Worth Center
Fri 07:27:51 AM 33.2864 -95.6367 71° East 382 440 24,600 1,450 Climbing Fort Worth Center
Fri 07:28:51 AM 33.3142 -95.5317 72° East 377 434 26,000 1,450 Climbing Fort Worth Center
Fri 07:29:51 AM 33.3478 -95.4192 70° East 367 422 27,500 1,450 Climbing Fort Worth Center
Fri 07:30:51 AM 33.3836 -95.3039 70° East 367 422 28,900 1,450 Climbing Fort Worth Center
Fri 07:31:51 AM 33.4131 -95.1961 72° East 355 409 30,400 1,500 Climbing Fort Worth Center
Fri 07:32:51 AM 33.4422 -95.0858 72° East 348 400 31,900 1,250 Climbing Fort Worth Center
Fri 07:33:51 AM 33.4778 -94.9753 69° East 348 400 32,900 1,000 Climbing Fort Worth Center
Fri 07:34:51 AM 33.5089 -94.8675 71° East 348 400 33,900 1,000 Climbing Fort Worth Center
Fri 07:35:51 AM 33.5400 -94.7544 72° East 353 406 34,900 550 Climbing Fort Worth Center
Fri 07:36:51 AM 33.5711 -94.6461 71° East 347 399 35,000 50 Climbing Fort Worth Center
Fri 07:37:51 AM 33.6039 -94.5256 72° East 358 412 35,000  Level Fort Worth Center
Fri 07:38:51 AM 33.6425 -94.3969 70° East 377 434 35,000  Level Fort Worth Center
Fri 07:39:51 AM 33.6808 -94.2558 72° East 389 448 35,000  Level Fort Worth Center
Fri 07:40:51 AM 33.7319 -94.1342 63° Northeast 404 465 35,000  Level Fort Worth Center
Fri 07:41:44 AM 33.7761 -94.0433 60° Northeast 402 463 35,000  Level Memphis Center
Fri 07:42:44 AM 33.8358 -93.9258 59° Northeast 402 463 35,000  Level Memphis Center
Fri 07:43:44 AM 33.8956 -93.8056 59° Northeast 408 470 35,000  Level Memphis Center
Fri 07:44:44 AM 33.9553 -93.6878 59° Northeast 408 470 35,000  Level Memphis Center
Fri 07:45:44 AM 34.0125 -93.5672 60° Northeast 408 470 35,000  Level Memphis Center
Fri 07:46:44 AM 34.0719 -93.4464 59° Northeast 413 475 35,000  Level Memphis Center
Fri 07:47:44 AM 34.1289 -93.3331 59° Northeast 413 475 35,000  Level Memphis Center
Fri 07:48:44 AM 34.1839 -93.2144 61° Northeast 407 468 35,000  Level Memphis Center
Fri 07:49:44 AM 34.2408 -93.1008 59° Northeast 402 463 35,000  Level Memphis Center
Fri 07:50:44 AM 34.2975 -92.9844 59° Northeast 397 457 35,000  Level Memphis Center
Fri 07:51:44 AM 34.3478 -92.8678 62° Northeast 397 457 35,000  Level Memphis Center
Fri 07:52:44 AM 34.4044 -92.7561 58° Northeast 392 451 35,000  Level Memphis Center
Fri 07:53:44 AM 34.4586 -92.6392 61° Northeast 392 451 35,000  Level Memphis Center
Fri 07:54:44 AM 34.5150 -92.5222 60° Northeast 392 451 35,000  Level Memphis Center
Fri 07:55:44 AM 34.5711 -92.4078 59° Northeast 392 451 35,000  Level Memphis Center
Fri 07:56:44 AM 34.6272 -92.2906 60° Northeast 392 451 35,000  Level Memphis Center
Fri 07:57:44 AM 34.6811 -92.1781 60° Northeast 392 451 35,000  Level Memphis Center
Fri 07:58:44 AM 34.7536 -92.0811 48° Northeast 392 451 35,000  Level Memphis Center
Fri 07:59:44 AM 34.8300 -91.9864 45° Northeast 387 445 35,000  Level Memphis Center
Fri 08:00:44 AM 34.9019 -91.8917 47° Northeast 382 440 35,000  Level Memphis Center
Fri 08:01:44 AM 34.9742 -91.7992 46° Northeast 377 434 35,000  Level Memphis Center
Fri 08:02:44 AM 35.0503 -91.7067 45° Northeast 372 428 35,000  Level Memphis Center
Fri 08:03:44 AM 35.1222 -91.6111 47° Northeast 372 428 35,000  Level Memphis Center
Fri 08:04:44 AM 35.2067 -91.5031 46° Northeast 379 436 35,000  Level Memphis Center
Fri 08:05:44 AM 35.2783 -91.4075 47° Northeast 379 436 35,000  Level Memphis Center
Fri 08:06:44 AM 35.3522 -91.3117 47° Northeast 379 436 35,000  Level Memphis Center
Fri 08:07:44 AM 35.4278 -91.2183 45° Northeast 379 436 35,000  Level Memphis Center
Fri 08:08:44 AM 35.5017 -91.1169 48° Northeast 384 442 35,000  Level Memphis Center
Fri 08:09:44 AM 35.5647 -91.0131 53° Northeast 389 448 35,000  Level Memphis Center
Fri 08:10:44 AM 35.6319 -90.8986 54° Northeast 401 461 35,000  Level Memphis Center
Fri 08:11:44 AM 35.6908 -90.8017 53° Northeast 401 461 35,000  Level Memphis Center
Fri 08:12:44 AM 35.7494 -90.6922 57° Northeast 396 456 35,000  Level Memphis Center
Fri 08:13:44 AM 35.8144 -90.5822 54° Northeast 396 456 35,000  Level Memphis Center
Fri 08:14:44 AM 35.8792 -90.4722 54° Northeast 396 456 35,000  Level Memphis Center
Fri 08:15:44 AM 35.9458 -90.3594 54° Northeast 401 461 35,000  Level Memphis Center
Fri 08:16:44 AM 36.0125 -90.2517 53° Northeast 401 461 35,000  Level Memphis Center
Fri 08:17:44 AM 36.0772 -90.1414 54° Northeast 401 461 35,000  Level Memphis Center
Fri 08:18:44 AM 36.1436 -90.0306 53° Northeast 401 461 35,000  Level Memphis Center
Fri 08:19:44 AM 36.2078 -89.9197 54° Northeast 401 461 35,000  Level Memphis Center
Fri 08:20:44 AM 36.2742 -89.8061 54° Northeast 401 461 35,000  Level Memphis Center
Fri 08:21:44 AM 36.3381 -89.6950 54° Northeast 401 461 35,000  Level Memphis Center
Fri 08:22:44 AM 36.4042 -89.5833 54° Northeast 401 461 35,000  Level Memphis Center
Fri 08:23:44 AM 36.4806 -89.4614 52° Northeast 406 467 35,000  Level Memphis Center
Fri 08:24:44 AM 36.5464 -89.3444 55° Northeast 406 467 35,000  Level Memphis Center
Fri 08:25:44 AM 36.6100 -89.2272 56° Northeast 406 467 35,000  Level Memphis Center
Fri 08:26:44 AM 36.6733 -89.1153 55° Northeast 401 461 35,000  Level Memphis Center
Fri 08:27:44 AM 36.7369 -89.0003 55° Northeast 401 461 35,000  Level Memphis Center
Fri 08:28:44 AM 36.8022 -88.8878 54° Northeast 401 461 35,000  Level Memphis Center
Fri 08:29:44 AM 36.8656 -88.7725 55° Northeast 406 467 35,000  Level Memphis Center
Fri 08:30:44 AM 36.9286 -88.6597 55° Northeast 401 461 35,000  Level Memphis Center
Fri 08:31:44 AM 36.9956 -88.5439 54° Northeast 401 461 35,000  Level Memphis Center
Fri 08:32:44 AM 37.0606 -88.4281 55° Northeast 401 461 35,000  Level Memphis Center
Fri 08:33:44 AM 37.1256 -88.3119 55° Northeast 406 467 35,000  Level Memphis Center
Fri 08:35:21 AM 37.2178 -88.1347 57° Northeast 412 474 35,000  Level Indianapolis Center
Fri 08:36:23 AM 37.2953 -87.9933 55° Northeast 414 476 35,000  Level Indianapolis Center
Fri 08:37:25 AM 37.3642 -87.8736 54° Northeast 417 480 35,000  Level Indianapolis Center
Fri 08:38:26 AM 37.4364 -87.7592 52° Northeast 413 475 35,000  Level Indianapolis Center
Fri 08:39:28 AM 37.5092 -87.6425 52° Northeast 417 480 35,000  Level Indianapolis Center
Fri 08:40:29 AM 37.5833 -87.5264 51° Northeast 420 483 35,000  Level Indianapolis Center
Fri 08:41:31 AM 37.6567 -87.4067 52° Northeast 425 489 35,000  Level Indianapolis Center
Fri 08:42:32 AM 37.7317 -87.2875 51° Northeast 427 491 35,000  Level Indianapolis Center
Fri 08:43:33 AM 37.8086 -87.1653 51° Northeast 431 496 35,000  Level Indianapolis Center
Fri 08:44:35 AM 37.8833 -87.0467 51° Northeast 432 497 35,000  Level Indianapolis Center
Fri 08:45:36 AM 37.9586 -86.9258 52° Northeast 437 503 35,000  Level Indianapolis Center
Fri 08:46:38 AM 38.0333 -86.8053 52° Northeast 439 505 35,000  Level Indianapolis Center
Fri 08:47:39 AM 38.1078 -86.6828 52° Northeast 441 507 35,000  Level Indianapolis Center
Fri 08:48:41 AM 38.1986 -86.5361 52° Northeast 441 507 35,000  Level Indianapolis Center
Fri 08:49:42 AM 38.2725 -86.4133 53° Northeast 438 504 35,000  Level Indianapolis Center
Fri 08:50:44 AM 38.3472 -86.2908 52° Northeast 438 504 35,000  Level Indianapolis Center
Fri 08:51:45 AM 38.4217 -86.1683 52° Northeast 437 503 35,000  Level Indianapolis Center
Fri 08:52:47 AM 38.4967 -86.0447 52° Northeast 439 505 35,000  Level Indianapolis Center
Fri 08:53:48 AM 38.5711 -85.9175 53° Northeast 445 512 35,000  Level Indianapolis Center
Fri 08:54:50 AM 38.6461 -85.7942 52° Northeast 444 511 35,000  Level Indianapolis Center
Fri 08:55:51 AM 38.7347 -85.6461 52° Northeast 447 514 35,000  Level Indianapolis Center
Fri 08:56:53 AM 38.8114 -85.5142 53° Northeast 454 522 35,000  Level Indianapolis Center
Fri 08:57:54 AM 38.8894 -85.3842 52° Northeast 457 526 35,000  Level Indianapolis Center
Fri 08:58:56 AM 38.9664 -85.2528 53° Northeast 458 527 35,000  Level Indianapolis Center
Fri 08:59:57 AM 39.0431 -85.1217 53° Northeast 457 526 35,000  Level Indianapolis Center
Fri 09:00:59 AM 39.1208 -84.9886 53° Northeast 461 531 35,000  Level Indianapolis Center
Fri 09:02:01 AM 39.2019 -84.8481 53° Northeast 458 527 35,000  Level Indianapolis Center
Fri 09:03:02 AM 39.2794 -84.7144 53° Northeast 459 528 35,000 -195 Level Indianapolis Center
Fri 09:04:04 AM 39.3561 -84.5803 54° Northeast 461 531 34,600 -1,268 Descending Indianapolis Center
Fri 09:05:05 AM 39.4331 -84.4458 53° Northeast 459 528 32,400 -2,244 Descending Indianapolis Center
Fri 09:06:07 AM 39.5061 -84.3169 54° Northeast 442 509 30,000 -1,645 Descending Indianapolis Center
Fri 09:07:09 AM 39.5786 -84.1894 54° Northeast 435 501 29,000 -484 Descending Indianapolis Center
Fri 09:08:11 AM 39.6517 -84.0617 53° Northeast 436 502 29,000  Level Indianapolis Center
Fri 09:09:12 AM 39.7356 -83.9461 47° Northeast 435 501 29,000  Level Indianapolis Center
Fri 09:10:14 AM 39.8481 -83.8269 39° Northeast 440 506 29,000  Level Indianapolis Center
Fri 09:11:16 AM 39.9453 -83.7217 40° Northeast 443 510 29,000  Level Indianapolis Center
Fri 09:12:17 AM 40.0431 -83.6161 40° Northeast 446 513 29,000 -829 Level Indianapolis Center
Fri 09:13:19 AM 40.1406 -83.5097 40° Northeast 448 516 27,300 -1,790 Descending Indianapolis Center
Fri 09:14:21 AM 40.2378 -83.4028 40° Northeast 449 517 25,300 -1,935 Descending Indianapolis Center
Fri 09:15:23 AM 40.3261 -83.2897 44° Northeast 441 507 23,300 -1,839 Descending Indianapolis Center
Fri 09:16:25 AM 40.4122 -83.1783 45° Northeast 431 496 21,500 -1,839 Descending Indianapolis Center
Fri 09:17:27 AM 40.4978 -83.0689 44° Northeast 427 491 19,500 -1,756 Descending Indianapolis Center
Fri 09:18:28 AM 40.5786 -82.9658 44° Northeast 417 480 17,900 -1,611 Descending Indianapolis Center
Fri 09:19:15 AM 40.6508 -82.8711 45° Northeast 419 482 16,600 -1,514 Descending Cleveland Center
Fri 09:20:15 AM 40.7300 -82.7697 44° Northeast 409 471 15,200 -1,474 Descending Cleveland Center
Fri 09:21:09 AM 40.8003 -82.6842 43° Northeast 379 436 13,800 -1,733 Descending Cleveland Center
Fri 09:21:45 AM 40.8453 -82.6197 47° Northeast 376 433 12,600 -1,909 Descending Cleveland Center
Fri 09:22:15 AM 40.8794 -82.5714 47° Northeast 380 437 11,700 -1,967 Descending Cleveland Center
Fri 09:22:46 AM 40.9200 -82.5258 40° Northeast 370 426 10,600 -1,700 Descending Cleveland Center
Fri 09:23:15 AM 40.9561 -82.4831 42° Northeast 363 418 10,000 -600 Descending Cleveland Center
Fri 09:23:46 AM 40.9964 -82.4400 39° Northeast 356 410 10,000 -100 Level Cleveland Center
Fri 09:24:15 AM 41.0283 -82.4025 42° Northeast 345 397 9,900 -393 Descending Cleveland Center
Fri 09:24:47 AM 41.0600 -82.3703 37° Northeast 280 322 9,600 -800 Descending Cleveland Center
Fri 09:25:15 AM 41.0878 -82.3353 44° Northeast 298 343 9,100 -1,180 Descending Cleveland Center
Fri 09:25:48 AM 41.1214 -82.3031 36° Northeast 280 322 8,400 -1,500 Descending Cleveland Center
Fri 09:26:15 AM 41.1469 -82.2653 48° Northeast 278 320 7,600 -1,600 Descending Cleveland Center
Fri 09:26:48 AM 41.1725 -82.2328 44° Northeast 264 304 6,800 -1,300 Descending Cleveland Center
Fri 09:27:15 AM 41.1897 -82.2028 53° Northeast 261 300 6,300 -787 Descending Cleveland Center
Fri 09:27:49 AM 41.2172 -82.1622 48° Northeast 256 295 6,000 -500 Descending Cleveland Center
Fri 09:28:15 AM 41.2344 -82.1294 55° Northeast 255 293 5,800 -984 Descending Cleveland Center
Fri 09:28:50 AM 41.2664 -82.0831 47° Northeast 258 297 5,000 -1,300 Descending Cleveland Center
Fri 09:29:15 AM 41.2814 -82.0558 54° Northeast 255 293 4,500 -1,444 Descending Cleveland Center
Fri 09:29:44 AM 41.3069 -82.0178 48° Northeast 256 295 3,700 -1,400 Descending Cleveland Center
Fri 09:30:15 AM 41.3258 -81.9906 47° Northeast 248 285 3,100 -1,254 Descending Cleveland Center
Fri 09:30:51 AM 41.3514 -81.9522 48° Northeast 195 224 2,300 -1,000 Descending Cleveland Center
Fri 09:31:57 AM 41.3789 -81.9086 50° Northeast 117 135 1,400 -818 Descending Cleveland Center
Fri 09:33:00 AM 41.4000 -81.8500 48° Northeast  Level FlightAware Approximate
Fri 09:40:00 AM 41.4094 -81.8547 48° Northeast  Level Estimated

Login

Don't have an account? Register now (free) for customized features, flight alerts, and more!